createdAt,value
2022-10-20T00:01:12.699Z,8.20
2022-10-20T00:03:39.548Z,8.20
2022-10-20T00:06:21.839Z,8.20
2022-10-20T00:08:49.413Z,8.20
2022-10-20T00:11:18.790Z,8.20
2022-10-20T00:13:47.660Z,8.20
2022-10-20T00:16:14.929Z,8.20
2022-10-20T00:18:42.017Z,8.20
2022-10-20T00:21:14.393Z,8.20
2022-10-20T00:23:41.457Z,8.30
2022-10-20T00:26:12.230Z,8.30
2022-10-20T00:28:39.213Z,8.20
2022-10-20T00:31:06.453Z,8.20
2022-10-20T00:33:34.045Z,8.20
2022-10-20T00:36:01.897Z,8.30
2022-10-20T00:38:28.729Z,8.20
2022-10-20T00:40:55.745Z,8.20
2022-10-20T00:43:22.867Z,8.20
2022-10-20T00:45:57.636Z,8.20
2022-10-20T00:48:30.270Z,8.20
2022-10-20T00:50:57.548Z,8.20
2022-10-20T00:53:27.221Z,8.20
2022-10-20T00:55:56.636Z,8.20
2022-10-20T00:58:24.174Z,8.10
2022-10-20T01:00:55.937Z,8.10
2022-10-20T01:03:35.492Z,8.10
2022-10-20T01:06:03.092Z,8.00
2022-10-20T01:08:29.871Z,8.00
2022-10-20T01:11:27.416Z,8.00
2022-10-20T01:14:05.955Z,8.00
2022-10-20T01:16:35.360Z,8.00
2022-10-20T01:19:25.736Z,7.90
2022-10-20T01:21:55.250Z,7.90
2022-10-20T01:25:14.349Z,8.00
2022-10-20T01:28:02.646Z,7.90
2022-10-20T01:30:30.241Z,7.90
2022-10-20T01:33:13.283Z,7.90
2022-10-20T01:35:55.043Z,8.00
2022-10-20T01:38:21.714Z,8.00
2022-10-20T01:41:24.306Z,8.00
2022-10-20T01:43:52.273Z,8.00
2022-10-20T01:46:23.783Z,8.00
2022-10-20T01:48:50.922Z,7.90
2022-10-20T01:51:17.722Z,8.00
2022-10-20T01:53:44.402Z,8.00
2022-10-20T01:56:26.217Z,8.00
2022-10-20T01:59:14.369Z,8.00
2022-10-20T02:02:18.893Z,8.00
2022-10-20T02:05:09.107Z,8.00
2022-10-20T02:07:36.044Z,7.90
2022-10-20T02:10:12.896Z,7.90
2022-10-20T02:12:42.115Z,7.90
2022-10-20T02:15:12.507Z,7.90
2022-10-20T02:17:41.957Z,7.80
2022-10-20T02:20:10.615Z,7.80
2022-10-20T02:22:39.840Z,7.80
2022-10-20T02:25:10.068Z,7.90
2022-10-20T02:27:39.400Z,7.90
2022-10-20T02:30:10.573Z,8.00
2022-10-20T02:32:40.723Z,7.90
2022-10-20T02:35:11.370Z,7.90
2022-10-20T02:37:38.267Z,7.90
2022-10-20T02:40:05.697Z,7.90
2022-10-20T02:42:32.410Z,7.90
2022-10-20T02:44:59.052Z,7.90
2022-10-20T02:47:25.688Z,7.90
2022-10-20T02:49:52.501Z,7.90
2022-10-20T02:52:19.155Z,8.00
2022-10-20T02:54:46.062Z,7.90
2022-10-20T02:57:12.824Z,7.90
2022-10-20T02:59:39.521Z,8.00
2022-10-20T03:02:06.321Z,7.90
2022-10-20T03:04:33.071Z,7.90
2022-10-20T03:06:59.914Z,7.90
2022-10-20T03:09:26.766Z,7.90
2022-10-20T03:11:53.717Z,8.00
2022-10-20T03:14:20.471Z,7.90
2022-10-20T03:16:47.364Z,7.90
2022-10-20T03:19:14.220Z,8.00
2022-10-20T03:21:40.963Z,8.00
2022-10-20T03:24:07.765Z,7.90
2022-10-20T03:26:34.545Z,7.90
2022-10-20T03:29:01.274Z,7.80
2022-10-20T03:31:28.057Z,7.90
2022-10-20T03:33:54.755Z,7.80
2022-10-20T03:36:21.688Z,7.80
2022-10-20T03:38:48.538Z,7.80
2022-10-20T03:41:15.284Z,7.90
2022-10-20T03:43:42.457Z,7.80
2022-10-20T03:46:11.429Z,7.90
2022-10-20T03:48:39.295Z,7.90
2022-10-20T03:51:07.261Z,7.90
2022-10-20T03:53:34.029Z,7.90
2022-10-20T03:56:09.365Z,7.90
2022-10-20T03:58:36.532Z,8.00
2022-10-20T04:01:04.261Z,8.00
2022-10-20T04:03:30.932Z,8.00
2022-10-20T04:05:57.609Z,8.00
2022-10-20T04:08:24.287Z,8.00
2022-10-20T04:10:50.960Z,8.00
2022-10-20T04:13:17.724Z,8.10
2022-10-20T04:15:44.484Z,8.10
2022-10-20T04:18:11.227Z,8.10
2022-10-20T04:20:39.412Z,8.10
2022-10-20T04:23:08.906Z,8.10
2022-10-20T04:25:35.852Z,8.10
2022-10-20T04:28:02.548Z,8.20
2022-10-20T04:30:29.218Z,8.20
2022-10-20T04:32:55.904Z,8.10
2022-10-20T04:35:22.581Z,8.20
2022-10-20T04:37:49.258Z,8.20
2022-10-20T04:40:16.055Z,8.20
2022-10-20T04:42:42.769Z,8.20
2022-10-20T04:45:09.986Z,8.20
2022-10-20T04:47:37.940Z,8.20
2022-10-20T04:50:05.959Z,8.20
2022-10-20T04:52:32.750Z,8.20
2022-10-20T04:54:59.461Z,8.20
2022-10-20T04:57:26.935Z,8.20
2022-10-20T04:59:53.736Z,8.20
2022-10-20T05:02:20.577Z,8.20
2022-10-20T05:04:47.298Z,8.20
2022-10-20T05:07:14.104Z,8.20
2022-10-20T05:09:40.874Z,8.20
2022-10-20T05:12:08.039Z,8.20
2022-10-20T05:14:34.739Z,8.20
2022-10-20T05:17:03.233Z,8.20
2022-10-20T05:19:32.191Z,8.30
2022-10-20T05:21:59.341Z,8.20
2022-10-20T05:24:29.882Z,8.20
2022-10-20T05:26:56.880Z,8.30
2022-10-20T05:29:24.534Z,8.30
2022-10-20T05:31:51.329Z,8.30
2022-10-20T05:34:18.015Z,8.30
2022-10-20T05:36:44.678Z,8.30
2022-10-20T05:39:12.009Z,8.30
2022-10-20T05:41:39.377Z,8.30
2022-10-20T05:44:08.938Z,8.30
2022-10-20T05:46:41.576Z,8.30
2022-10-20T05:49:13.952Z,8.40
2022-10-20T05:51:40.930Z,8.30
2022-10-20T05:54:07.700Z,8.40
2022-10-20T05:56:34.488Z,8.40
2022-10-20T05:59:01.154Z,8.40
2022-10-20T06:01:39.414Z,8.40
2022-10-20T06:04:08.675Z,8.40
2022-10-20T06:06:36.188Z,8.40
2022-10-20T06:09:06.951Z,8.40
2022-10-20T06:11:38.364Z,8.40
2022-10-20T06:14:06.272Z,8.40
2022-10-20T06:16:33.001Z,8.40
2022-10-20T06:19:00.042Z,8.50
2022-10-20T06:21:29.811Z,8.50
2022-10-20T06:23:59.497Z,8.50
2022-10-20T06:26:33.087Z,8.60
2022-10-20T06:29:04.386Z,8.60
2022-10-20T06:31:34.309Z,8.60
2022-10-20T06:34:01.627Z,8.60
2022-10-20T06:36:28.734Z,8.60
2022-10-20T06:38:59.419Z,8.70
2022-10-20T06:41:27.122Z,8.70
2022-10-20T06:43:58.561Z,8.70
2022-10-20T06:46:29.886Z,8.70
2022-10-20T06:48:58.735Z,8.70
2022-10-20T06:51:26.214Z,8.80
2022-10-20T06:53:53.046Z,8.70
2022-10-20T06:56:22.954Z,8.90
2022-10-20T06:58:54.841Z,9.00
2022-10-20T07:01:33.511Z,9.10
2022-10-20T07:04:03.249Z,9.20
2022-10-20T07:06:33.122Z,9.40
2022-10-20T07:09:01.114Z,9.40
2022-10-20T07:11:29.619Z,9.50
2022-10-20T07:13:58.613Z,9.60
2022-10-20T07:16:27.901Z,9.60
2022-10-20T07:18:55.567Z,9.70
2022-10-20T07:21:24.618Z,9.70
2022-10-20T07:23:51.618Z,9.70
2022-10-20T07:26:24.704Z,9.70
2022-10-20T07:28:55.923Z,9.80
2022-10-20T07:31:24.302Z,9.80
2022-10-20T07:34:06.779Z,9.90
2022-10-20T07:36:41.507Z,10.00
2022-10-20T07:39:08.325Z,10.20
2022-10-20T07:41:37.507Z,10.40
2022-10-20T07:44:04.857Z,10.80
2022-10-20T07:46:31.727Z,11.00
2022-10-20T07:49:11.463Z,11.20
2022-10-20T07:51:45.559Z,11.30
2022-10-20T07:54:12.360Z,11.50
2022-10-20T07:56:43.090Z,11.70
2022-10-20T07:59:13.473Z,11.90
2022-10-20T08:01:40.620Z,12.00
2022-10-20T08:04:07.511Z,12.10
2022-10-20T08:06:34.381Z,12.20
2022-10-20T08:09:01.404Z,12.40
2022-10-20T08:11:28.740Z,12.60
2022-10-20T08:13:55.689Z,12.80
2022-10-20T08:16:23.493Z,13.00
2022-10-20T08:18:54.231Z,13.10
2022-10-20T08:21:22.806Z,13.20
2022-10-20T08:23:50.493Z,13.30
2022-10-20T08:26:25.313Z,13.40
2022-10-20T08:28:54.172Z,13.50
2022-10-20T08:31:22.537Z,13.60
2022-10-20T08:33:52.593Z,13.70
2022-10-20T08:36:19.685Z,13.70
2022-10-20T08:38:46.447Z,13.70
2022-10-20T08:41:20.403Z,13.70
2022-10-20T08:43:50.508Z,13.80
2022-10-20T08:46:20.942Z,13.80
2022-10-20T08:48:48.821Z,14.00
2022-10-20T08:51:40.468Z,13.90
2022-10-20T08:54:13.180Z,14.00
2022-10-20T08:56:39.978Z,14.10
2022-10-20T08:59:33.494Z,14.20
2022-10-20T09:02:01.203Z,14.20
2022-10-20T09:04:54.694Z,14.20
2022-10-20T09:07:26.287Z,14.30
2022-10-20T09:09:57.947Z,14.40
2022-10-20T09:12:30.196Z,14.40
2022-10-20T09:14:58.243Z,14.50
2022-10-20T09:17:25.188Z,14.50
2022-10-20T09:19:59.219Z,14.60
2022-10-20T09:22:33.317Z,14.60
2022-10-20T09:25:02.527Z,14.60
2022-10-20T09:27:29.238Z,14.60
2022-10-20T09:29:56.013Z,14.60
2022-10-20T09:32:46.510Z,14.60
2022-10-20T09:35:24.501Z,14.60
2022-10-20T09:38:13.051Z,14.60
2022-10-20T09:41:18.134Z,14.60
2022-10-20T09:43:58.067Z,14.70
2022-10-20T09:46:29.650Z,14.70
2022-10-20T09:48:56.991Z,14.70
2022-10-20T09:51:26.726Z,14.80
2022-10-20T09:53:53.448Z,14.70
2022-10-20T09:56:29.186Z,14.80
2022-10-20T09:58:57.467Z,14.80
2022-10-20T10:01:24.583Z,14.80
2022-10-20T10:03:59.793Z,14.80
2022-10-20T10:06:43.455Z,14.80
2022-10-20T10:09:34.711Z,14.90
2022-10-20T10:12:03.823Z,14.90
2022-10-20T10:14:35.602Z,14.90
2022-10-20T10:17:02.602Z,14.90
2022-10-20T10:19:33.987Z,14.90
2022-10-20T10:22:02.961Z,14.90
2022-10-20T10:24:39.682Z,14.90
2022-10-20T10:27:19.421Z,14.80
2022-10-20T10:29:46.742Z,14.80
2022-10-20T10:32:18.211Z,14.70
2022-10-20T10:34:51.187Z,14.70
2022-10-20T10:39:51.259Z,14.60
2022-10-20T10:42:36.772Z,14.60
2022-10-20T10:45:20.144Z,14.60
2022-10-20T10:48:09.020Z,14.60
2022-10-20T10:50:38.872Z,14.60
2022-10-20T10:53:17.824Z,14.60
2022-10-20T10:55:53.376Z,14.70
2022-10-20T10:58:32.912Z,14.80
2022-10-20T11:01:05.819Z,14.80
2022-10-20T11:03:45.582Z,14.90
2022-10-20T11:06:25.715Z,14.90
2022-10-20T11:09:11.613Z,14.90
2022-10-20T11:11:45.970Z,14.90
2022-10-20T11:14:34.240Z,14.80
2022-10-20T11:17:01.062Z,14.80
2022-10-20T11:19:52.821Z,14.80
2022-10-20T11:22:34.574Z,14.80
2022-10-20T11:25:33.127Z,14.80
2022-10-20T11:28:00.473Z,14.80
2022-10-20T11:30:28.948Z,14.80
2022-10-20T11:33:05.849Z,14.80
2022-10-20T11:35:53.929Z,14.80
2022-10-20T11:38:41.912Z,14.70
2022-10-20T11:41:17.785Z,14.60
2022-10-20T11:43:57.269Z,14.50
2022-10-20T11:46:46.888Z,14.50
2022-10-20T11:49:13.749Z,14.50
2022-10-20T11:52:14.589Z,14.50
2022-10-20T11:54:59.830Z,14.50
2022-10-20T11:58:04.351Z,14.50
2022-10-20T12:00:59.824Z,14.50
2022-10-20T12:03:36.681Z,14.50
2022-10-20T12:06:27.069Z,14.50
2022-10-20T12:08:56.797Z,14.50
2022-10-20T12:11:51.650Z,14.50
2022-10-20T12:14:41.475Z,14.50
2022-10-20T12:17:43.406Z,14.50
2022-10-20T12:20:41.625Z,14.50
2022-10-20T12:23:43.991Z,14.40
2022-10-20T12:27:01.271Z,14.40
2022-10-20T12:29:30.772Z,14.30
2022-10-20T12:32:24.445Z,14.30
2022-10-20T12:35:00.970Z,14.20
2022-10-20T12:37:36.721Z,14.20
2022-10-20T12:40:06.697Z,14.10
2022-10-20T12:42:42.669Z,14.10
2022-10-20T12:45:37.634Z,14.10
2022-10-20T12:48:06.751Z,14.00
2022-10-20T12:50:37.902Z,14.00
2022-10-20T12:53:26.673Z,14.00
2022-10-20T12:56:01.322Z,13.90
2022-10-20T12:58:58.834Z,14.00
2022-10-20T13:01:28.258Z,13.90
2022-10-20T13:03:55.056Z,13.90
2022-10-20T13:06:27.442Z,13.90
2022-10-20T13:09:03.542Z,13.90
2022-10-20T13:11:39.552Z,13.90
2022-10-20T13:14:14.228Z,13.90
2022-10-20T13:16:43.757Z,13.90
2022-10-20T13:19:18.316Z,14.00
2022-10-20T13:21:49.478Z,14.00
2022-10-20T13:24:40.554Z,14.10
2022-10-20T13:27:11.813Z,14.20
2022-10-20T13:29:43.603Z,14.20
2022-10-20T13:32:43.357Z,14.30
2022-10-20T13:35:37.017Z,14.30
2022-10-20T13:38:17.727Z,14.30
2022-10-20T13:40:56.889Z,14.40
2022-10-20T13:43:56.635Z,14.40
2022-10-20T13:46:33.436Z,14.40
2022-10-20T13:49:28.206Z,14.40
2022-10-20T13:52:01.132Z,14.40
2022-10-20T13:54:31.521Z,14.50
2022-10-20T13:56:58.929Z,14.50
2022-10-20T13:59:28.626Z,14.60
2022-10-20T14:02:01.323Z,14.60
2022-10-20T14:04:36.665Z,14.70
2022-10-20T14:07:13.103Z,14.70
2022-10-20T14:09:45.366Z,14.80
2022-10-20T14:12:26.205Z,14.80
2022-10-20T14:15:01.413Z,14.80
2022-10-20T14:17:30.491Z,15.00
2022-10-20T14:20:30.617Z,15.00
2022-10-20T14:22:59.976Z,15.00
2022-10-20T14:25:27.853Z,15.00
2022-10-20T14:27:56.388Z,15.10
2022-10-20T14:30:24.252Z,15.40
2022-10-20T14:32:51.525Z,15.80
2022-10-20T14:35:37.272Z,16.10
2022-10-20T14:38:14.747Z,16.30
2022-10-20T14:40:41.763Z,16.60
2022-10-20T14:43:40.340Z,16.80
2022-10-20T14:46:25.745Z,16.90
2022-10-20T14:48:52.475Z,17.00
2022-10-20T14:51:37.625Z,17.10
2022-10-20T14:54:19.813Z,17.20
2022-10-20T14:57:14.247Z,17.20
2022-10-20T14:59:51.386Z,17.40
2022-10-20T15:02:22.323Z,17.60
2022-10-20T15:04:53.463Z,17.60
2022-10-20T15:07:26.790Z,17.70
2022-10-20T15:10:00.421Z,17.50
2022-10-20T15:12:37.077Z,17.40
2022-10-20T15:15:08.401Z,17.30
2022-10-20T15:17:46.670Z,17.20
2022-10-20T15:20:31.826Z,17.20
2022-10-20T15:22:59.753Z,17.10
2022-10-20T15:25:27.925Z,17.10
2022-10-20T15:27:57.090Z,17.20
2022-10-20T15:30:25.512Z,17.00
2022-10-20T15:32:54.030Z,16.80
2022-10-20T15:35:23.749Z,16.70
2022-10-20T15:37:56.238Z,16.60
2022-10-20T15:40:22.939Z,16.30
2022-10-20T15:42:49.680Z,16.20
2022-10-20T15:45:22.078Z,16.10
2022-10-20T15:47:48.894Z,16.00
2022-10-20T15:50:16.017Z,15.90
2022-10-20T15:52:42.915Z,15.80
2022-10-20T15:55:33.446Z,15.80
2022-10-20T15:58:00.770Z,15.80
2022-10-20T16:00:29.112Z,15.70
2022-10-20T16:02:56.127Z,15.70
2022-10-20T16:05:24.333Z,15.60
2022-10-20T16:07:54.773Z,15.60
2022-10-20T16:10:29.454Z,15.50
2022-10-20T16:12:56.907Z,15.40
2022-10-20T16:15:28.798Z,15.30
2022-10-20T16:17:58.122Z,15.30
2022-10-20T16:20:24.843Z,15.20
2022-10-20T16:22:51.560Z,15.20
2022-10-20T16:25:18.403Z,15.10
2022-10-20T16:27:45.405Z,15.10
2022-10-20T16:30:12.215Z,15.00
2022-10-20T16:32:39.140Z,15.00
2022-10-20T16:35:06.427Z,14.90
2022-10-20T16:37:34.137Z,14.80
2022-10-20T16:40:00.967Z,14.80
2022-10-20T16:42:30.278Z,14.80
2022-10-20T16:44:57.395Z,14.80
2022-10-20T16:47:25.963Z,14.70
2022-10-20T16:49:52.753Z,14.70
2022-10-20T16:52:19.621Z,14.70
2022-10-20T16:54:46.415Z,14.70
2022-10-20T16:57:13.830Z,14.60
2022-10-20T16:59:41.296Z,14.60
2022-10-20T17:02:08.235Z,14.60
2022-10-20T17:04:35.033Z,14.70
2022-10-20T17:07:01.793Z,14.60
2022-10-20T17:09:29.968Z,14.60
2022-10-20T17:11:57.210Z,14.50
2022-10-20T17:14:29.061Z,14.50
2022-10-20T17:16:55.937Z,14.50
2022-10-20T17:19:22.872Z,14.50
2022-10-20T17:21:52.453Z,14.50
2022-10-20T17:24:22.185Z,14.60
2022-10-20T17:26:49.009Z,14.50
2022-10-20T17:29:15.823Z,14.50
2022-10-20T17:31:42.541Z,14.50
2022-10-20T17:34:09.266Z,14.50
2022-10-20T17:36:36.062Z,14.60
2022-10-20T17:39:06.324Z,14.60
2022-10-20T17:41:33.546Z,14.60
2022-10-20T17:44:04.618Z,14.60
2022-10-20T17:46:32.004Z,14.60
2022-10-20T17:49:01.372Z,14.60
2022-10-20T17:51:31.873Z,14.60
2022-10-20T17:54:01.497Z,14.60
2022-10-20T17:56:35.328Z,14.60
2022-10-20T17:59:04.173Z,14.60
2022-10-20T18:01:33.901Z,14.60
2022-10-20T18:04:12.292Z,14.60
2022-10-20T18:06:39.862Z,14.60
2022-10-20T18:09:16.889Z,14.60
2022-10-20T18:11:46.813Z,14.60
2022-10-20T18:14:13.725Z,14.60
2022-10-20T18:16:41.021Z,14.70
2022-10-20T18:19:11.938Z,14.70
2022-10-20T18:21:38.625Z,14.70
2022-10-20T18:24:08.597Z,14.70
2022-10-20T18:26:37.108Z,14.70
2022-10-20T18:29:08.224Z,14.60
2022-10-20T18:31:36.522Z,14.70
2022-10-20T18:34:08.243Z,14.70
2022-10-20T18:36:39.158Z,14.70
2022-10-20T18:39:09.883Z,14.60
2022-10-20T18:41:39.464Z,14.60
2022-10-20T18:44:10.274Z,14.60
2022-10-20T18:46:37.097Z,14.70
2022-10-20T18:49:07.153Z,14.70
2022-10-20T18:51:35.269Z,14.70
2022-10-20T18:54:02.985Z,14.70
2022-10-20T18:56:30.627Z,14.70
2022-10-20T18:58:59.615Z,14.70
2022-10-20T19:01:29.530Z,14.70
2022-10-20T19:03:57.858Z,14.70
2022-10-20T19:06:27.540Z,14.70
2022-10-20T19:08:56.867Z,14.70
2022-10-20T19:11:26.809Z,14.70
2022-10-20T19:13:54.113Z,14.70
2022-10-20T19:16:23.861Z,14.70
2022-10-20T19:18:53.039Z,14.70
2022-10-20T19:24:00.829Z,14.60
2022-10-20T19:26:30.464Z,14.60
2022-10-20T19:29:04.089Z,14.50
2022-10-20T19:31:40.894Z,14.50
2022-10-20T19:34:14.144Z,14.60
2022-10-20T19:36:41.648Z,14.60
2022-10-20T19:39:11.766Z,14.60
2022-10-20T19:41:39.930Z,14.60
2022-10-20T19:44:08.829Z,14.60
2022-10-20T19:46:35.558Z,14.60
2022-10-20T19:49:02.399Z,14.60
2022-10-20T19:51:31.028Z,14.60
2022-10-20T19:53:57.780Z,14.50
2022-10-20T19:56:24.618Z,14.50
2022-10-20T19:58:51.322Z,14.50
2022-10-20T20:01:18.196Z,14.60
2022-10-20T20:03:45.835Z,14.60
2022-10-20T20:06:16.542Z,14.60
2022-10-20T20:08:45.069Z,14.60
2022-10-20T20:11:21.250Z,14.60
2022-10-20T20:13:48.105Z,14.60
2022-10-20T20:16:14.826Z,14.60
2022-10-20T20:18:41.496Z,14.60
2022-10-20T20:21:08.218Z,14.60
2022-10-20T20:23:47.687Z,14.60
2022-10-20T20:26:22.256Z,14.60
2022-10-20T20:28:49.270Z,14.60
2022-10-20T20:31:16.100Z,14.60
2022-10-20T20:33:42.801Z,14.60
2022-10-20T20:36:10.095Z,14.60
2022-10-20T20:38:38.676Z,14.70
2022-10-20T20:41:10.188Z,14.70
2022-10-20T20:43:37.643Z,14.70
2022-10-20T20:46:12.026Z,14.80
2022-10-20T20:48:39.241Z,14.90
2022-10-20T20:51:06.563Z,14.90
2022-10-20T20:53:38.268Z,15.00
2022-10-20T20:56:13.111Z,15.00
2022-10-20T20:58:45.276Z,15.00
2022-10-20T21:01:18.164Z,15.00
2022-10-20T21:03:45.977Z,15.10
2022-10-20T21:06:15.348Z,15.20
2022-10-20T21:08:44.256Z,15.10
2022-10-20T21:11:14.203Z,15.10
2022-10-20T21:13:41.866Z,15.20
2022-10-20T21:16:12.997Z,15.20
2022-10-20T21:18:40.959Z,15.20
2022-10-20T21:21:13.195Z,15.20
2022-10-20T21:23:40.285Z,15.20
2022-10-20T21:26:08.653Z,15.20
2022-10-20T21:28:36.428Z,15.20
2022-10-20T21:31:12.103Z,15.20
2022-10-20T21:33:39.734Z,15.20
2022-10-20T21:36:09.285Z,15.20
2022-10-20T21:38:37.633Z,15.20
2022-10-20T21:41:25.422Z,15.20
2022-10-20T21:43:54.497Z,15.20
2022-10-20T21:46:22.426Z,15.20
2022-10-20T21:48:51.238Z,15.20
2022-10-20T21:51:23.510Z,15.30
2022-10-20T21:53:57.810Z,15.30
2022-10-20T21:56:25.174Z,15.30
2022-10-20T21:58:52.772Z,15.30
2022-10-20T22:01:22.210Z,15.30
2022-10-20T22:03:50.392Z,15.40
2022-10-20T22:06:20.047Z,15.40
2022-10-20T22:08:48.835Z,15.40
2022-10-20T22:11:25.145Z,15.40
2022-10-20T22:13:52.321Z,15.40
2022-10-20T22:16:21.431Z,15.40
2022-10-20T22:18:48.209Z,15.40
2022-10-20T22:21:18.030Z,15.40
2022-10-20T22:23:44.968Z,15.40
2022-10-20T22:26:12.662Z,15.40
2022-10-20T22:28:40.207Z,15.40
2022-10-20T22:31:07.727Z,15.50
2022-10-20T22:33:35.159Z,15.50
2022-10-20T22:36:03.106Z,15.50
2022-10-20T22:38:29.890Z,15.50
2022-10-20T22:41:01.294Z,15.60
2022-10-20T22:43:29.209Z,15.60
2022-10-20T22:45:56.065Z,15.60
2022-10-20T22:48:22.875Z,15.60
2022-10-20T22:50:50.090Z,15.60
2022-10-20T22:53:16.960Z,15.60
2022-10-20T22:55:43.824Z,15.70
2022-10-20T22:58:10.653Z,15.70
2022-10-20T23:00:39.829Z,15.70
2022-10-20T23:03:06.573Z,15.70
2022-10-20T23:05:33.367Z,15.70
2022-10-20T23:08:00.208Z,15.80
2022-10-20T23:10:26.989Z,15.80
2022-10-20T23:12:53.699Z,15.80
2022-10-20T23:15:20.447Z,15.80
2022-10-20T23:17:47.455Z,15.80
2022-10-20T23:20:14.154Z,15.70
2022-10-20T23:22:40.895Z,15.80
2022-10-20T23:25:08.114Z,15.70
2022-10-20T23:27:36.147Z,15.70
2022-10-20T23:30:03.297Z,15.60
2022-10-20T23:32:29.957Z,15.60
2022-10-20T23:34:56.947Z,15.50
2022-10-20T23:37:23.703Z,15.50
2022-10-20T23:39:50.632Z,15.40
2022-10-20T23:42:17.510Z,15.30
2022-10-20T23:44:44.358Z,15.20
2022-10-20T23:47:11.112Z,15.00
2022-10-20T23:49:37.802Z,15.00
2022-10-20T23:52:04.746Z,14.90
2022-10-20T23:54:31.386Z,14.90
2022-10-20T23:56:58.112Z,14.80
2022-10-20T23:59:25.259Z,14.80
